Weather at Punta Prieta Airstrip

Public forecast

Using degrees Celsius for public forecast. Weather courtesy of forecast.io.

Closest aviation weather report (METAR) to Punta Prieta Airstrip

Closest report is General Ignacio P. Garcia International Airport, 163.3 nm (302.4 km) E. Retrieved 2021/06/12 19:40 UTC (2 minutes ago):

MMHO 121940Z 23004KT 10SM SKC 42/M02 A2976 RMK HZY

Closest aviation forecast (TAF) to Punta Prieta Airstrip

Closest forecast is General Ignacio P. Garcia International Airport, 163.3 nm (302.4 km) E. Retrieved 2021/06/12 18:25 UTC (1 hour ago):

TAF MMHO 121718Z 1218/1318 20015KT P6SM SKC BECMG 1300/1301 00000KT FM131500 16010KT P6SM SKC